sensor_id;sensor_type;location;lat;lon;timestamp;pressure;altitude;pressure_sealevel;temperature;humidity
76746;BME280;65671;49.976;20.038;2024-01-16T00:01:30;96136.88;;;-0.20;100.00
76746;BME280;65671;49.976;20.038;2024-01-16T00:03:56;96132.16;;;-0.37;100.00
76746;BME280;65671;49.976;20.038;2024-01-16T00:06:21;96140.03;;;-0.48;100.00
76746;BME280;65671;49.976;20.038;2024-01-16T00:08:46;96142.00;;;-0.41;100.00
76746;BME280;65671;49.976;20.038;2024-01-16T00:11:12;96141.53;;;-0.50;100.00
76746;BME280;65671;49.976;20.038;2024-01-16T00:13:37;96144.59;;;-0.48;100.00
76746;BME280;65671;49.976;20.038;2024-01-16T00:16:03;96152.91;;;-0.53;100.00
76746;BME280;65671;49.976;20.038;2024-01-16T00:18:31;96156.03;;;-0.44;100.00
76746;BME280;65671;49.976;20.038;2024-01-16T00:20:57;96146.56;;;-0.42;100.00
76746;BME280;65671;49.976;20.038;2024-01-16T00:23:22;96153.81;;;-0.35;100.00
76746;BME280;65671;49.976;20.038;2024-01-16T00:25:48;96155.31;;;-0.38;100.00
76746;BME280;65671;49.976;20.038;2024-01-16T00:28:13;96166.34;;;-0.39;100.00
76746;BME280;65671;49.976;20.038;2024-01-16T00:30:38;96167.06;;;-0.42;100.00
76746;BME280;65671;49.976;20.038;2024-01-16T00:33:04;96165.28;;;-0.31;100.00
76746;BME280;65671;49.976;20.038;2024-01-16T00:35:29;96162.56;;;-0.35;100.00
76746;BME280;65671;49.976;20.038;2024-01-16T00:37:55;96176.75;;;-0.20;100.00
76746;BME280;65671;49.976;20.038;2024-01-16T00:40:20;96173.38;;;-0.17;100.00
76746;BME280;65671;49.976;20.038;2024-01-16T00:42:45;96171.81;;;-0.22;100.00
76746;BME280;65671;49.976;20.038;2024-01-16T00:45:11;96183.53;;;-0.30;100.00
76746;BME280;65671;49.976;20.038;2024-01-16T00:47:36;96178.66;;;-0.24;100.00
76746;BME280;65671;49.976;20.038;2024-01-16T00:50:01;96186.47;;;-0.38;100.00
76746;BME280;65671;49.976;20.038;2024-01-16T00:52:27;96194.53;;;-0.31;100.00
76746;BME280;65671;49.976;20.038;2024-01-16T00:54:53;96182.34;;;-0.32;100.00
76746;BME280;65671;49.976;20.038;2024-01-16T00:57:18;96189.88;;;-0.38;100.00
76746;BME280;65671;49.976;20.038;2024-01-16T00:59:45;96192.03;;;-0.50;100.00
76746;BME280;65671;49.976;20.038;2024-01-16T01:02:11;96200.50;;;-0.41;100.00
76746;BME280;65671;49.976;20.038;2024-01-16T01:04:37;96202.31;;;-0.49;100.00
76746;BME280;65671;49.976;20.038;2024-01-16T01:07:02;96205.34;;;-0.50;100.00
76746;BME280;65671;49.976;20.038;2024-01-16T01:09:28;96208.31;;;-0.56;100.00
76746;BME280;65671;49.976;20.038;2024-01-16T01:11:53;96211.78;;;-0.51;100.00
76746;BME280;65671;49.976;20.038;2024-01-16T01:14:19;96214.81;;;-0.49;100.00
76746;BME280;65671;49.976;20.038;2024-01-16T01:16:44;96219.41;;;-0.46;100.00
76746;BME280;65671;49.976;20.038;2024-01-16T01:19:09;96222.13;;;-0.43;100.00
76746;BME280;65671;49.976;20.038;2024-01-16T01:21:35;96218.75;;;-0.40;100.00
76746;BME280;65671;49.976;20.038;2024-01-16T01:24:01;96217.47;;;-0.49;100.00
76746;BME280;65671;49.976;20.038;2024-01-16T01:26:26;96221.06;;;-0.35;100.00
76746;BME280;65671;49.976;20.038;2024-01-16T01:28:51;96215.78;;;-0.31;100.00
76746;BME280;65671;49.976;20.038;2024-01-16T01:31:17;96219.50;;;-0.39;100.00
76746;BME280;65671;49.976;20.038;2024-01-16T01:33:43;96216.91;;;-0.32;100.00
76746;BME280;65671;49.976;20.038;2024-01-16T01:36:08;96224.44;;;-0.38;100.00
76746;BME280;65671;49.976;20.038;2024-01-16T01:38:35;96223.81;;;-0.28;100.00
76746;BME280;65671;49.976;20.038;2024-01-16T01:41:00;96227.88;;;-0.37;100.00
76746;BME280;65671;49.976;20.038;2024-01-16T01:43:25;96229.78;;;-0.68;100.00
76746;BME280;65671;49.976;20.038;2024-01-16T01:48:19;96225.50;;;-0.46;100.00
76746;BME280;65671;49.976;20.038;2024-01-16T01:50:45;96232.31;;;-0.48;100.00
76746;BME280;65671;49.976;20.038;2024-01-16T01:53:10;96236.22;;;-0.39;100.00
76746;BME280;65671;49.976;20.038;2024-01-16T01:55:35;96240.41;;;-0.71;100.00
76746;BME280;65671;49.976;20.038;2024-01-16T01:58:01;96239.41;;;-0.60;100.00
76746;BME280;65671;49.976;20.038;2024-01-16T02:00:30;96237.50;;;-0.59;100.00
76746;BME280;65671;49.976;20.038;2024-01-16T02:02:55;96237.63;;;-0.48;100.00
76746;BME280;65671;49.976;20.038;2024-01-16T02:05:21;96237.97;;;-0.53;100.00
76746;BME280;65671;49.976;20.038;2024-01-16T02:07:47;96236.53;;;-0.44;100.00
76746;BME280;65671;49.976;20.038;2024-01-16T02:10:13;96236.75;;;-0.60;100.00
76746;BME280;65671;49.976;20.038;2024-01-16T02:12:39;96236.38;;;-0.58;100.00
76746;BME280;65671;49.976;20.038;2024-01-16T02:15:04;96240.56;;;-0.57;100.00
76746;BME280;65671;49.976;20.038;2024-01-16T02:17:30;96236.69;;;-0.63;100.00
76746;BME280;65671;49.976;20.038;2024-01-16T02:19:55;96242.72;;;-0.66;100.00
76746;BME280;65671;49.976;20.038;2024-01-16T02:22:23;96249.84;;;-0.74;100.00
76746;BME280;65671;49.976;20.038;2024-01-16T02:24:50;96247.81;;;-0.84;100.00
76746;BME280;65671;49.976;20.038;2024-01-16T02:27:16;96240.97;;;-0.85;100.00
76746;BME280;65671;49.976;20.038;2024-01-16T02:29:42;96252.75;;;-0.82;100.00
76746;BME280;65671;49.976;20.038;2024-01-16T02:32:13;96246.50;;;-0.97;100.00
76746;BME280;65671;49.976;20.038;2024-01-16T02:34:39;96252.38;;;-0.84;100.00
76746;BME280;65671;49.976;20.038;2024-01-16T02:37:05;96253.75;;;-0.94;100.00
76746;BME280;65671;49.976;20.038;2024-01-16T02:39:30;96251.09;;;-0.94;100.00
76746;BME280;65671;49.976;20.038;2024-01-16T02:41:55;96258.06;;;-0.86;100.00
76746;BME280;65671;49.976;20.038;2024-01-16T02:44:21;96264.31;;;-0.71;100.00
76746;BME280;65671;49.976;20.038;2024-01-16T02:46:47;96259.84;;;-0.64;100.00
76746;BME280;65671;49.976;20.038;2024-01-16T02:49:12;96264.44;;;-0.61;100.00
76746;BME280;65671;49.976;20.038;2024-01-16T02:51:38;96266.78;;;-0.56;100.00
76746;BME280;65671;49.976;20.038;2024-01-16T02:54:04;96264.94;;;-0.51;100.00
76746;BME280;65671;49.976;20.038;2024-01-16T02:56:30;96260.00;;;-0.49;100.00
76746;BME280;65671;49.976;20.038;2024-01-16T02:58:55;96271.91;;;-0.40;100.00
76746;BME280;65671;49.976;20.038;2024-01-16T03:01:21;96264.75;;;-0.36;100.00
76746;BME280;65671;49.976;20.038;2024-01-16T03:03:46;96273.91;;;-0.33;100.00
76746;BME280;65671;49.976;20.038;2024-01-16T03:06:21;96274.69;;;-0.29;100.00
76746;BME280;65671;49.976;20.038;2024-01-16T03:08:46;96277.44;;;-0.22;100.00
76746;BME280;65671;49.976;20.038;2024-01-16T03:11:11;96280.44;;;-0.27;100.00
76746;BME280;65671;49.976;20.038;2024-01-16T03:13:37;96275.25;;;-0.13;100.00
76746;BME280;65671;49.976;20.038;2024-01-16T03:16:06;96275.00;;;-0.34;100.00
76746;BME280;65671;49.976;20.038;2024-01-16T03:18:31;96276.13;;;-0.39;100.00
76746;BME280;65671;49.976;20.038;2024-01-16T03:20:58;96274.25;;;-0.35;100.00
76746;BME280;65671;49.976;20.038;2024-01-16T03:23:24;96281.44;;;-0.35;100.00
76746;BME280;65671;49.976;20.038;2024-01-16T03:25:50;96277.28;;;-0.36;100.00
76746;BME280;65671;49.976;20.038;2024-01-16T03:28:15;96281.22;;;-0.23;100.00
76746;BME280;65671;49.976;20.038;2024-01-16T03:30:41;96283.53;;;-0.22;100.00
76746;BME280;65671;49.976;20.038;2024-01-16T03:33:06;96285.47;;;-0.19;100.00
76746;BME280;65671;49.976;20.038;2024-01-16T03:35:32;96287.31;;;-0.23;100.00
76746;BME280;65671;49.976;20.038;2024-01-16T03:37:57;96284.94;;;-0.31;100.00
76746;BME280;65671;49.976;20.038;2024-01-16T03:40:22;96287.75;;;-0.17;100.00
76746;BME280;65671;49.976;20.038;2024-01-16T03:42:48;96293.78;;;-0.20;100.00
76746;BME280;65671;49.976;20.038;2024-01-16T03:45:13;96300.94;;;-0.28;100.00
76746;BME280;65671;49.976;20.038;2024-01-16T03:47:39;96296.44;;;-0.24;100.00
76746;BME280;65671;49.976;20.038;2024-01-16T03:50:04;96290.34;;;-0.24;100.00
76746;BME280;65671;49.976;20.038;2024-01-16T03:52:30;96293.31;;;-0.29;100.00
76746;BME280;65671;49.976;20.038;2024-01-16T03:54:55;96291.06;;;-0.27;100.00
76746;BME280;65671;49.976;20.038;2024-01-16T03:57:21;96298.09;;;-0.12;100.00
76746;BME280;65671;49.976;20.038;2024-01-16T03:59:47;96285.03;;;-0.24;100.00
76746;BME280;65671;49.976;20.038;2024-01-16T04:02:12;96294.88;;;-0.25;100.00
76746;BME280;65671;49.976;20.038;2024-01-16T04:04:37;96296.06;;;-0.22;100.00
76746;BME280;65671;49.976;20.038;2024-01-16T04:07:03;96303.69;;;-0.17;100.00
76746;BME280;65671;49.976;20.038;2024-01-16T04:09:29;96300.31;;;-0.14;100.00
76746;BME280;65671;49.976;20.038;2024-01-16T04:11:54;96311.50;;;-0.02;100.00
76746;BME280;65671;49.976;20.038;2024-01-16T04:14:20;96315.94;;;-0.13;100.00
76746;BME280;65671;49.976;20.038;2024-01-16T04:16:45;96303.47;;;-0.05;100.00
76746;BME280;65671;49.976;20.038;2024-01-16T04:19:10;96304.66;;;0.01;100.00
76746;BME280;65671;49.976;20.038;2024-01-16T04:21:36;96306.44;;;-0.10;100.00
76746;BME280;65671;49.976;20.038;2024-01-16T04:24:02;96308.94;;;-0.24;100.00
76746;BME280;65671;49.976;20.038;2024-01-16T04:26:27;96316.22;;;-0.21;100.00
76746;BME280;65671;49.976;20.038;2024-01-16T04:28:52;96310.84;;;-0.25;100.00
76746;BME280;65671;49.976;20.038;2024-01-16T04:31:18;96308.22;;;-0.21;100.00
76746;BME280;65671;49.976;20.038;2024-01-16T04:33:44;96310.06;;;-0.25;100.00
76746;BME280;65671;49.976;20.038;2024-01-16T04:36:10;96315.38;;;-0.25;100.00
76746;BME280;65671;49.976;20.038;2024-01-16T04:38:35;96329.41;;;-0.28;100.00
76746;BME280;65671;49.976;20.038;2024-01-16T04:41:02;96321.34;;;-0.35;100.00
76746;BME280;65671;49.976;20.038;2024-01-16T04:43:27;96328.59;;;-0.32;100.00
76746;BME280;65671;49.976;20.038;2024-01-16T04:45:53;96329.41;;;-0.28;100.00
76746;BME280;65671;49.976;20.038;2024-01-16T04:48:18;96337.66;;;-0.37;100.00
76746;BME280;65671;49.976;20.038;2024-01-16T04:50:44;96328.91;;;-0.37;100.00
76746;BME280;65671;49.976;20.038;2024-01-16T04:53:10;96333.91;;;-0.32;100.00
76746;BME280;65671;49.976;20.038;2024-01-16T04:55:36;96330.03;;;-0.38;100.00
76746;BME280;65671;49.976;20.038;2024-01-16T04:58:02;96337.25;;;-0.39;100.00
76746;BME280;65671;49.976;20.038;2024-01-16T05:00:27;96339.47;;;-0.44;100.00
76746;BME280;65671;49.976;20.038;2024-01-16T05:02:53;96354.56;;;-0.22;100.00
76746;BME280;65671;49.976;20.038;2024-01-16T05:05:18;96370.88;;;-0.24;100.00
76746;BME280;65671;49.976;20.038;2024-01-16T05:07:44;96356.41;;;-0.26;100.00
76746;BME280;65671;49.976;20.038;2024-01-16T05:10:10;96373.19;;;-0.22;100.00
76746;BME280;65671;49.976;20.038;2024-01-16T05:12:38;96375.84;;;-0.22;100.00
76746;BME280;65671;49.976;20.038;2024-01-16T05:15:03;96375.44;;;-0.24;100.00
76746;BME280;65671;49.976;20.038;2024-01-16T05:17:29;96386.94;;;-0.17;100.00
76746;BME280;65671;49.976;20.038;2024-01-16T05:19:54;96399.06;;;-0.19;100.00
76746;BME280;65671;49.976;20.038;2024-01-16T05:22:20;96390.03;;;-0.11;100.00
76746;BME280;65671;49.976;20.038;2024-01-16T05:24:45;96403.03;;;-0.06;100.00
76746;BME280;65671;49.976;20.038;2024-01-16T05:27:11;96398.72;;;-0.14;100.00
76746;BME280;65671;49.976;20.038;2024-01-16T05:29:36;96409.28;;;-0.21;100.00
76746;BME280;65671;49.976;20.038;2024-01-16T05:32:04;96409.69;;;-0.19;100.00
76746;BME280;65671;49.976;20.038;2024-01-16T05:34:30;96423.50;;;-0.10;100.00
76746;BME280;65671;49.976;20.038;2024-01-16T05:36:55;96415.28;;;-0.28;100.00
76746;BME280;65671;49.976;20.038;2024-01-16T05:39:21;96418.00;;;-0.24;100.00
76746;BME280;65671;49.976;20.038;2024-01-16T05:41:46;96420.09;;;-0.37;100.00
76746;BME280;65671;49.976;20.038;2024-01-16T05:44:12;96431.63;;;-0.52;100.00
76746;BME280;65671;49.976;20.038;2024-01-16T05:46:37;96449.41;;;-0.33;100.00
76746;BME280;65671;49.976;20.038;2024-01-16T05:49:03;96445.97;;;-0.34;100.00
76746;BME280;65671;49.976;20.038;2024-01-16T05:51:28;96439.66;;;-0.22;100.00
76746;BME280;65671;49.976;20.038;2024-01-16T05:53:55;96448.31;;;-0.29;100.00
76746;BME280;65671;49.976;20.038;2024-01-16T05:56:20;96455.63;;;-0.22;100.00
76746;BME280;65671;49.976;20.038;2024-01-16T05:58:46;96449.19;;;-0.21;100.00
76746;BME280;65671;49.976;20.038;2024-01-16T06:01:11;96453.59;;;-0.06;100.00
76746;BME280;65671;49.976;20.038;2024-01-16T06:03:39;96469.94;;;-0.04;100.00
76746;BME280;65671;49.976;20.038;2024-01-16T06:06:05;96452.75;;;-0.10;100.00
76746;BME280;65671;49.976;20.038;2024-01-16T06:08:30;96457.09;;;0.02;100.00
76746;BME280;65671;49.976;20.038;2024-01-16T06:10:56;96470.03;;;0.03;100.00
76746;BME280;65671;49.976;20.038;2024-01-16T06:13:21;96468.34;;;-0.09;100.00
76746;BME280;65671;49.976;20.038;2024-01-16T06:15:47;96454.75;;;-0.04;100.00
76746;BME280;65671;49.976;20.038;2024-01-16T06:18:13;96473.38;;;-0.04;100.00
76746;BME280;65671;49.976;20.038;2024-01-16T06:20:38;96466.56;;;-0.01;100.00
76746;BME280;65671;49.976;20.038;2024-01-16T06:23:04;96471.38;;;-0.10;100.00
76746;BME280;65671;49.976;20.038;2024-01-16T06:25:29;96470.56;;;-0.14;100.00
76746;BME280;65671;49.976;20.038;2024-01-16T06:27:54;96491.78;;;-0.18;100.00
76746;BME280;65671;49.976;20.038;2024-01-16T06:30:21;96493.06;;;-0.34;100.00
76746;BME280;65671;49.976;20.038;2024-01-16T06:32:47;96493.88;;;-0.53;100.00
76746;BME280;65671;49.976;20.038;2024-01-16T06:35:14;96502.56;;;-0.56;100.00
76746;BME280;65671;49.976;20.038;2024-01-16T06:37:39;96497.97;;;-0.59;100.00
76746;BME280;65671;49.976;20.038;2024-01-16T06:40:05;96505.47;;;-0.65;100.00
76746;BME280;65671;49.976;20.038;2024-01-16T06:42:31;96505.78;;;-0.92;100.00
76746;BME280;65671;49.976;20.038;2024-01-16T06:44:56;96508.19;;;-0.84;100.00
76746;BME280;65671;49.976;20.038;2024-01-16T06:47:22;96509.44;;;-0.78;100.00
76746;BME280;65671;49.976;20.038;2024-01-16T06:49:49;96517.47;;;-0.74;100.00
76746;BME280;65671;49.976;20.038;2024-01-16T06:52:14;96522.25;;;-0.83;100.00
76746;BME280;65671;49.976;20.038;2024-01-16T06:54:40;96526.09;;;-0.81;100.00
76746;BME280;65671;49.976;20.038;2024-01-16T06:57:05;96530.75;;;-0.74;100.00
76746;BME280;65671;49.976;20.038;2024-01-16T06:59:31;96542.41;;;-0.60;100.00
76746;BME280;65671;49.976;20.038;2024-01-16T07:01:57;96544.75;;;-0.54;100.00
76746;BME280;65671;49.976;20.038;2024-01-16T07:04:22;96540.38;;;-0.43;100.00
76746;BME280;65671;49.976;20.038;2024-01-16T07:06:48;96551.56;;;-0.34;100.00
76746;BME280;65671;49.976;20.038;2024-01-16T07:09:14;96552.88;;;-0.47;100.00
76746;BME280;65671;49.976;20.038;2024-01-16T07:11:41;96559.88;;;-0.59;100.00
76746;BME280;65671;49.976;20.038;2024-01-16T07:14:09;96558.06;;;-0.54;100.00
76746;BME280;65671;49.976;20.038;2024-01-16T07:16:34;96570.34;;;-0.46;100.00
76746;BME280;65671;49.976;20.038;2024-01-16T07:19:01;96574.94;;;-0.43;100.00
76746;BME280;65671;49.976;20.038;2024-01-16T07:21:27;96580.56;;;-0.48;100.00
76746;BME280;65671;49.976;20.038;2024-01-16T07:23:53;96585.47;;;-0.50;100.00
76746;BME280;65671;49.976;20.038;2024-01-16T07:26:18;96587.06;;;-0.46;100.00
76746;BME280;65671;49.976;20.038;2024-01-16T07:28:44;96583.34;;;-0.41;100.00
76746;BME280;65671;49.976;20.038;2024-01-16T07:31:09;96584.78;;;-0.47;100.00
76746;BME280;65671;49.976;20.038;2024-01-16T07:33:35;96588.41;;;-0.56;100.00
76746;BME280;65671;49.976;20.038;2024-01-16T07:36:01;96591.44;;;-0.57;100.00
76746;BME280;65671;49.976;20.038;2024-01-16T07:38:26;96599.00;;;-0.36;100.00
76746;BME280;65671;49.976;20.038;2024-01-16T07:40:52;96596.06;;;-0.31;100.00
76746;BME280;65671;49.976;20.038;2024-01-16T07:43:17;96608.56;;;-0.32;100.00
76746;BME280;65671;49.976;20.038;2024-01-16T07:45:42;96604.81;;;-0.31;100.00
76746;BME280;65671;49.976;20.038;2024-01-16T07:48:08;96600.50;;;-0.39;100.00
76746;BME280;65671;49.976;20.038;2024-01-16T07:50:33;96609.41;;;-0.28;100.00
76746;BME280;65671;49.976;20.038;2024-01-16T07:52:59;96619.16;;;-0.13;100.00
76746;BME280;65671;49.976;20.038;2024-01-16T07:55:24;96618.94;;;-0.04;100.00
76746;BME280;65671;49.976;20.038;2024-01-16T07:57:50;96625.91;;;0.04;100.00
76746;BME280;65671;49.976;20.038;2024-01-16T08:00:15;96620.41;;;-0.07;100.00
76746;BME280;65671;49.976;20.038;2024-01-16T08:02:41;96626.59;;;0.01;100.00
76746;BME280;65671;49.976;20.038;2024-01-16T08:05:07;96630.19;;;0.12;100.00
76746;BME280;65671;49.976;20.038;2024-01-16T08:07:32;96629.78;;;0.10;100.00
76746;BME280;65671;49.976;20.038;2024-01-16T08:09:57;96632.13;;;0.12;100.00
76746;BME280;65671;49.976;20.038;2024-01-16T08:12:23;96642.91;;;0.22;100.00
76746;BME280;65671;49.976;20.038;2024-01-16T08:14:48;96644.75;;;0.18;100.00
76746;BME280;65671;49.976;20.038;2024-01-16T08:17:14;96639.50;;;-0.01;100.00
76746;BME280;65671;49.976;20.038;2024-01-16T08:19:39;96646.34;;;0.23;100.00
76746;BME280;65671;49.976;20.038;2024-01-16T08:22:05;96654.22;;;0.16;100.00
76746;BME280;65671;49.976;20.038;2024-01-16T08:24:31;96659.72;;;0.26;100.00
76746;BME280;65671;49.976;20.038;2024-01-16T08:26:56;96646.69;;;0.21;100.00
76746;BME280;65671;49.976;20.038;2024-01-16T08:29:25;96656.81;;;0.35;100.00
76746;BME280;65671;49.976;20.038;2024-01-16T08:31:50;96663.66;;;0.36;100.00
76746;BME280;65671;49.976;20.038;2024-01-16T08:34:19;96667.56;;;0.19;100.00
76746;BME280;65671;49.976;20.038;2024-01-16T08:36:44;96673.97;;;0.15;100.00
76746;BME280;65671;49.976;20.038;2024-01-16T08:39:10;96670.19;;;0.16;100.00
76746;BME280;65671;49.976;20.038;2024-01-16T08:41:36;96688.34;;;0.10;100.00
76746;BME280;65671;49.976;20.038;2024-01-16T08:44:02;96695.13;;;0.30;100.00
76746;BME280;65671;49.976;20.038;2024-01-16T08:46:27;96702.31;;;0.26;100.00
76746;BME280;65671;49.976;20.038;2024-01-16T08:48:52;96712.88;;;0.23;100.00
76746;BME280;65671;49.976;20.038;2024-01-16T08:51:19;96709.84;;;0.24;100.00
76746;BME280;65671;49.976;20.038;2024-01-16T08:53:44;96713.00;;;0.30;100.00
76746;BME280;65671;49.976;20.038;2024-01-16T08:56:09;96709.38;;;0.19;100.00
76746;BME280;65671;49.976;20.038;2024-01-16T08:58:38;96706.16;;;0.29;100.00
76746;BME280;65671;49.976;20.038;2024-01-16T09:01:04;96723.47;;;0.65;100.00
76746;BME280;65671;49.976;20.038;2024-01-16T09:03:31;96728.00;;;0.64;100.00
76746;BME280;65671;49.976;20.038;2024-01-16T09:05:57;96722.13;;;0.29;100.00
76746;BME280;65671;49.976;20.038;2024-01-16T09:08:23;96718.38;;;0.33;100.00
76746;BME280;65671;49.976;20.038;2024-01-16T09:10:48;96730.28;;;0.39;100.00
76746;BME280;65671;49.976;20.038;2024-01-16T09:13:13;96727.84;;;0.53;100.00
76746;BME280;65671;49.976;20.038;2024-01-16T09:15:39;96725.94;;;0.77;100.00
76746;BME280;65671;49.976;20.038;2024-01-16T09:18:05;96733.19;;;0.80;100.00
76746;BME280;65671;49.976;20.038;2024-01-16T09:20:31;96726.06;;;0.87;100.00
76746;BME280;65671;49.976;20.038;2024-01-16T09:22:56;96729.56;;;0.91;100.00
76746;BME280;65671;49.976;20.038;2024-01-16T09:25:22;96727.16;;;1.09;100.00
76746;BME280;65671;49.976;20.038;2024-01-16T09:27:50;96731.97;;;1.00;100.00
76746;BME280;65671;49.976;20.038;2024-01-16T09:30:16;96725.66;;;1.11;100.00
76746;BME280;65671;49.976;20.038;2024-01-16T09:32:41;96731.66;;;0.79;100.00
76746;BME280;65671;49.976;20.038;2024-01-16T09:35:08;96738.03;;;1.00;100.00
76746;BME280;65671;49.976;20.038;2024-01-16T09:37:35;96740.31;;;0.72;100.00
76746;BME280;65671;49.976;20.038;2024-01-16T09:40:00;96737.50;;;0.88;100.00
76746;BME280;65671;49.976;20.038;2024-01-16T09:42:25;96739.41;;;0.87;100.00
76746;BME280;65671;49.976;20.038;2024-01-16T09:44:55;96746.88;;;1.04;100.00
76746;BME280;65671;49.976;20.038;2024-01-16T09:47:20;96742.81;;;1.14;100.00
76746;BME280;65671;49.976;20.038;2024-01-16T09:49:46;96742.25;;;1.01;99.41
76746;BME280;65671;49.976;20.038;2024-01-16T09:52:13;96742.31;;;0.79;98.55
76746;BME280;65671;49.976;20.038;2024-01-16T09:54:38;96748.78;;;1.34;99.30
76746;BME280;65671;49.976;20.038;2024-01-16T09:57:06;96736.56;;;1.29;96.50
76746;BME280;65671;49.976;20.038;2024-01-16T09:59:32;96737.19;;;1.19;97.95
76746;BME280;65671;49.976;20.038;2024-01-16T10:02:01;96747.94;;;1.26;98.45
76746;BME280;65671;49.976;20.038;2024-01-16T10:04:31;96750.75;;;1.37;97.78
76746;BME280;65671;49.976;20.038;2024-01-16T10:06:56;96745.69;;;1.28;97.66
76746;BME280;65671;49.976;20.038;2024-01-16T10:09:23;96748.44;;;1.35;97.39
76746;BME280;65671;49.976;20.038;2024-01-16T10:11:50;96755.31;;;1.10;99.32
76746;BME280;65671;49.976;20.038;2024-01-16T10:14:17;96752.38;;;1.15;99.26
76746;BME280;65671;49.976;20.038;2024-01-16T10:17:02;96761.56;;;0.95;100.00
76746;BME280;65671;49.976;20.038;2024-01-16T10:19:31;96778.00;;;0.97;100.00
76746;BME280;65671;49.976;20.038;2024-01-16T10:22:05;96770.09;;;1.04;100.00
76746;BME280;65671;49.976;20.038;2024-01-16T10:24:31;96779.22;;;1.03;100.00
76746;BME280;65671;49.976;20.038;2024-01-16T10:27:00;96771.63;;;1.05;100.00
76746;BME280;65671;49.976;20.038;2024-01-16T10:29:26;96777.44;;;1.10;100.00
76746;BME280;65671;49.976;20.038;2024-01-16T10:31:52;96778.41;;;0.99;100.00
76746;BME280;65671;49.976;20.038;2024-01-16T10:34:21;96779.31;;;0.84;100.00
76746;BME280;65671;49.976;20.038;2024-01-16T10:36:47;96786.13;;;0.81;100.00
76746;BME280;65671;49.976;20.038;2024-01-16T10:39:13;96785.78;;;1.09;100.00
76746;BME280;65671;49.976;20.038;2024-01-16T10:41:39;96791.59;;;0.92;100.00
76746;BME280;65671;49.976;20.038;2024-01-16T10:44:05;96789.25;;;1.13;100.00
76746;BME280;65671;49.976;20.038;2024-01-16T10:46:35;96785.88;;;1.16;100.00
76746;BME280;65671;49.976;20.038;2024-01-16T10:49:03;96792.69;;;1.13;100.00
76746;BME280;65671;49.976;20.038;2024-01-16T10:51:29;96791.97;;;1.17;100.00
76746;BME280;65671;49.976;20.038;2024-01-16T10:56:29;96791.59;;;1.15;100.00
76746;BME280;65671;49.976;20.038;2024-01-16T11:01:50;96786.28;;;1.74;99.36
76746;BME280;65671;49.976;20.038;2024-01-16T11:04:18;96787.25;;;1.62;98.15
76746;BME280;65671;49.976;20.038;2024-01-16T11:06:52;96792.47;;;1.52;99.91
76746;BME280;65671;49.976;20.038;2024-01-16T11:09:19;96794.28;;;1.44;99.67
76746;BME280;65671;49.976;20.038;2024-01-16T11:11:46;96791.56;;;1.41;98.17
76746;BME280;65671;49.976;20.038;2024-01-16T11:14:14;96792.22;;;1.34;97.93
76746;BME280;65671;49.976;20.038;2024-01-16T11:16:40;96794.06;;;1.30;96.91
76746;BME280;65671;49.976;20.038;2024-01-16T11:19:08;96787.00;;;1.41;95.80
76746;BME280;65671;49.976;20.038;2024-01-16T11:21:36;96793.00;;;1.35;95.74
76746;BME280;65671;49.976;20.038;2024-01-16T11:24:02;96795.13;;;1.52;94.42
76746;BME280;65671;49.976;20.038;2024-01-16T11:26:32;96801.50;;;1.44;94.15
76746;BME280;65671;49.976;20.038;2024-01-16T11:28:59;96812.19;;;1.44;91.86
76746;BME280;65671;49.976;20.038;2024-01-16T11:31:29;96804.53;;;1.16;91.44
76746;BME280;65671;49.976;20.038;2024-01-16T11:33:59;96799.03;;;1.58;91.01
76746;BME280;65671;49.976;20.038;2024-01-16T11:36:50;96802.50;;;1.32;89.40
76746;BME280;65671;49.976;20.038;2024-01-16T11:39:25;96790.75;;;1.37;90.83
76746;BME280;65671;49.976;20.038;2024-01-16T11:41:55;96803.09;;;1.48;90.41
76746;BME280;65671;49.976;20.038;2024-01-16T11:47:09;96810.69;;;1.46;87.08
76746;BME280;65671;49.976;20.038;2024-01-16T11:49:36;96818.25;;;1.41;87.58
76746;BME280;65671;49.976;20.038;2024-01-16T11:52:02;96806.47;;;1.45;86.54
76746;BME280;65671;49.976;20.038;2024-01-16T11:54:27;96814.41;;;1.38;85.73
76746;BME280;65671;49.976;20.038;2024-01-16T12:02:02;96808.16;;;1.57;84.79
76746;BME280;65671;49.976;20.038;2024-01-16T12:04:31;96821.34;;;1.46;86.56
76746;BME280;65671;49.976;20.038;2024-01-16T12:06:59;96817.16;;;1.75;85.28
76746;BME280;65671;49.976;20.038;2024-01-16T12:09:28;96819.56;;;1.84;83.20
76746;BME280;65671;49.976;20.038;2024-01-16T12:11:59;96823.59;;;2.04;86.37
76746;BME280;65671;49.976;20.038;2024-01-16T12:14:24;96831.88;;;1.92;84.53
76746;BME280;65671;49.976;20.038;2024-01-16T12:16:50;96828.09;;;1.66;87.93
76746;BME280;65671;49.976;20.038;2024-01-16T12:19:15;96830.91;;;1.47;87.48
76746;BME280;65671;49.976;20.038;2024-01-16T12:21:43;96818.78;;;1.83;86.30
76746;BME280;65671;49.976;20.038;2024-01-16T12:24:12;96824.84;;;1.50;86.55
76746;BME280;65671;49.976;20.038;2024-01-16T12:26:38;96822.59;;;1.26;90.29
76746;BME280;65671;49.976;20.038;2024-01-16T12:29:07;96816.75;;;1.43;90.33
76746;BME280;65671;49.976;20.038;2024-01-16T12:31:32;96819.28;;;1.62;87.59
76746;BME280;65671;49.976;20.038;2024-01-16T12:34:24;96815.41;;;1.30;91.43
76746;BME280;65671;49.976;20.038;2024-01-16T12:37:04;96821.06;;;1.25;92.80
76746;BME280;65671;49.976;20.038;2024-01-16T12:39:30;96826.78;;;1.01;93.86
76746;BME280;65671;49.976;20.038;2024-01-16T12:41:55;96847.22;;;0.93;100.00
76746;BME280;65671;49.976;20.038;2024-01-16T12:44:26;96836.84;;;0.24;100.00
76746;BME280;65671;49.976;20.038;2024-01-16T12:46:56;96848.34;;;0.28;100.00
76746;BME280;65671;49.976;20.038;2024-01-16T12:49:23;96855.69;;;-0.23;100.00
76746;BME280;65671;49.976;20.038;2024-01-16T12:51:49;96858.22;;;-0.11;100.00
76746;BME280;65671;49.976;20.038;2024-01-16T12:54:17;96876.59;;;-0.41;100.00
76746;BME280;65671;49.976;20.038;2024-01-16T12:56:44;96879.66;;;-0.74;100.00